createdAt,value
2022-12-22T00:02:00.520Z,0.42
2022-12-22T00:04:47.924Z,0.21
2022-12-22T00:07:34.433Z,0.70
2022-12-22T00:10:20.681Z,0.97
2022-12-22T00:13:08.494Z,0.96
2022-12-22T00:15:55.031Z,0.51
2022-12-22T00:18:41.042Z,0.53
2022-12-22T00:21:29.817Z,0.85
2022-12-22T00:24:16.428Z,0.86
2022-12-22T00:27:03.329Z,0.64
2022-12-22T00:29:56.119Z,1.06
2022-12-22T00:32:42.955Z,0.83
2022-12-22T00:35:32.775Z,0.99
2022-12-22T00:38:19.252Z,0.61
2022-12-22T00:41:05.227Z,0.86
2022-12-22T00:43:51.525Z,0.79
2022-12-22T00:46:39.151Z,0.89
2022-12-22T00:49:27.123Z,0.98
2022-12-22T00:52:13.597Z,0.37
2022-12-22T00:55:00.470Z,0.68
2022-12-22T00:57:47.159Z,0.26
2022-12-22T01:00:34.459Z,0.48
2022-12-22T01:03:23.045Z,0.52
2022-12-22T01:06:09.532Z,0.19
2022-12-22T01:08:55.789Z,0.24
2022-12-22T01:11:42.408Z,0.26
2022-12-22T01:14:29.373Z,-0.04
2022-12-22T01:17:16.060Z,0.15
2022-12-22T01:20:03.734Z,0.49
2022-12-22T01:22:50.010Z,0.28
2022-12-22T01:25:37.757Z,0.07
2022-12-22T01:28:24.376Z,0.07
2022-12-22T01:31:10.896Z,-0.13
2022-12-22T01:33:57.353Z,-0.23
2022-12-22T01:36:44.868Z,-0.39
2022-12-22T01:39:31.364Z,-0.48
2022-12-22T01:42:17.779Z,-0.24
2022-12-22T01:45:04.008Z,-0.00
2022-12-22T01:47:53.056Z,-0.20
2022-12-22T01:50:46.717Z,-0.19
2022-12-22T01:53:38.467Z,-0.51
2022-12-22T01:56:25.516Z,-0.30
2022-12-22T01:59:14.034Z,-0.20
2022-12-22T02:02:01.121Z,-0.32
2022-12-22T02:04:50.564Z,-0.60
2022-12-22T02:07:47.398Z,-0.14
2022-12-22T02:10:44.258Z,-0.06
2022-12-22T02:13:38.295Z,-0.36
2022-12-22T02:16:30.059Z,-0.30
2022-12-22T02:19:20.998Z,-0.23
2022-12-22T02:22:15.608Z,-0.58
2022-12-22T02:25:06.221Z,-0.41
2022-12-22T02:27:54.855Z,-0.22
2022-12-22T02:30:40.957Z,-0.26
2022-12-22T02:33:28.038Z,0.50
2022-12-22T02:36:23.570Z,0.44
2022-12-22T02:39:21.148Z,0.21
2022-12-22T02:42:12.220Z,0.34
2022-12-22T02:45:05.412Z,0.93
2022-12-22T02:47:56.343Z,0.60
2022-12-22T02:50:47.635Z,0.71
2022-12-22T02:53:34.932Z,0.10
2022-12-22T02:56:25.183Z,0.46
2022-12-22T02:59:11.670Z,0.88
2022-12-22T03:02:02.082Z,0.34
2022-12-22T03:04:48.553Z,0.44
2022-12-22T03:07:35.052Z,0.80
2022-12-22T03:10:23.109Z,0.63
2022-12-22T03:13:09.521Z,0.34
2022-12-22T03:15:56.334Z,0.42
2022-12-22T03:18:44.525Z,0.32
2022-12-22T03:21:30.931Z,0.51
2022-12-22T03:24:17.568Z,0.31
2022-12-22T03:26:46.573Z,0.66
2022-12-22T03:29:15.762Z,0.40
2022-12-22T03:31:44.845Z,0.31
2022-12-22T03:34:15.658Z,0.62
2022-12-22T03:36:44.797Z,0.51
2022-12-22T03:39:13.955Z,0.34
2022-12-22T03:42:00.530Z,0.64
2022-12-22T03:44:47.075Z,0.68
2022-12-22T03:47:16.139Z,0.81
2022-12-22T03:49:46.370Z,1.01
2022-12-22T03:52:15.483Z,1.07
2022-12-22T03:54:44.533Z,0.90
2022-12-22T03:57:13.554Z,0.59
2022-12-22T03:59:42.683Z,0.57
2022-12-22T04:02:11.879Z,0.60
2022-12-22T04:04:40.703Z,0.78
2022-12-22T04:07:11.193Z,0.77
2022-12-22T04:10:00.739Z,0.41
2022-12-22T04:12:47.383Z,0.36
2022-12-22T04:15:16.530Z,0.44
2022-12-22T04:17:45.570Z,0.61
2022-12-22T04:20:14.795Z,0.53
2022-12-22T04:22:44.984Z,0.20
2022-12-22T04:25:14.828Z,0.24
2022-12-22T04:27:44.135Z,0.24
2022-12-22T04:30:14.368Z,0.45
2022-12-22T04:32:43.940Z,0.36
2022-12-22T04:35:13.436Z,0.23
2022-12-22T04:37:42.155Z,0.34
2022-12-22T04:40:13.158Z,0.33
2022-12-22T04:42:42.286Z,0.01
2022-12-22T04:45:12.389Z,0.61
2022-12-22T04:47:41.476Z,0.08
2022-12-22T04:50:11.175Z,0.38
2022-12-22T04:52:40.005Z,0.62
2022-12-22T04:55:09.905Z,0.74
2022-12-22T04:57:41.276Z,1.42
2022-12-22T05:00:12.181Z,1.03
2022-12-22T05:02:41.452Z,0.68
2022-12-22T05:05:11.229Z,0.62
2022-12-22T05:07:39.915Z,0.63
2022-12-22T05:10:10.394Z,0.82
2022-12-22T05:12:55.929Z,0.88
2022-12-22T05:15:26.045Z,0.61
2022-12-22T05:17:56.208Z,0.63
2022-12-22T05:20:25.556Z,0.73
2022-12-22T05:22:54.278Z,0.62
2022-12-22T05:25:23.547Z,0.91
2022-12-22T05:27:54.026Z,0.99
2022-12-22T05:30:22.776Z,1.05
2022-12-22T05:32:52.091Z,0.64
2022-12-22T05:35:21.496Z,0.58
2022-12-22T05:37:50.926Z,0.94
2022-12-22T05:40:20.162Z,1.11
2022-12-22T05:42:49.221Z,0.86
2022-12-22T05:45:21.031Z,0.81
2022-12-22T05:47:51.920Z,0.93
2022-12-22T05:50:22.483Z,1.24
2022-12-22T05:53:00.112Z,0.97
2022-12-22T05:55:29.490Z,0.84
2022-12-22T05:58:03.110Z,0.73
2022-12-22T06:00:34.144Z,1.32
2022-12-22T06:03:03.532Z,1.40
2022-12-22T06:05:32.654Z,1.43
2022-12-22T06:08:01.822Z,1.29
2022-12-22T06:10:30.576Z,1.22
2022-12-22T06:12:59.583Z,0.85
2022-12-22T06:15:28.607Z,0.80
2022-12-22T06:17:59.050Z,0.61
2022-12-22T06:20:28.256Z,0.49
2022-12-22T06:22:56.895Z,0.70
2022-12-22T06:25:25.951Z,0.59
2022-12-22T06:27:54.976Z,0.57
2022-12-22T06:30:30.927Z,0.67
2022-12-22T06:33:03.848Z,0.73
2022-12-22T06:35:33.055Z,0.81
2022-12-22T06:38:02.036Z,0.74
2022-12-22T06:40:30.608Z,0.77
2022-12-22T06:43:11.287Z,0.71
2022-12-22T06:45:42.558Z,1.19
2022-12-22T06:48:13.874Z,0.61
2022-12-22T06:50:42.985Z,0.43
2022-12-22T06:53:12.276Z,0.90
2022-12-22T06:55:42.592Z,0.85
2022-12-22T06:58:11.704Z,0.64
2022-12-22T07:00:40.731Z,0.59
2022-12-22T07:03:10.267Z,0.57
2022-12-22T07:05:41.030Z,0.51
2022-12-22T07:08:11.271Z,0.35
2022-12-22T07:11:01.041Z,0.58
2022-12-22T07:13:33.607Z,0.66
2022-12-22T07:16:03.123Z,0.68
2022-12-22T07:18:33.818Z,0.48
2022-12-22T07:21:06.367Z,1.06
2022-12-22T07:23:35.651Z,0.62
2022-12-22T07:26:06.124Z,0.99
2022-12-22T07:28:35.583Z,0.87
2022-12-22T07:31:05.091Z,1.12
2022-12-22T07:33:34.327Z,1.33
2022-12-22T07:36:10.635Z,1.22
2022-12-22T07:38:41.409Z,0.54
2022-12-22T07:41:25.231Z,1.05
2022-12-22T07:43:54.533Z,0.75
2022-12-22T07:46:24.053Z,0.56
2022-12-22T07:49:11.080Z,0.70
2022-12-22T07:51:42.752Z,0.45
2022-12-22T07:54:13.113Z,0.68
2022-12-22T07:56:42.023Z,0.82
2022-12-22T07:59:11.507Z,1.34
2022-12-22T08:01:41.833Z,2.14
2022-12-22T08:04:12.044Z,1.64
2022-12-22T08:06:42.557Z,1.24
2022-12-22T08:09:15.590Z,1.22
2022-12-22T08:11:44.833Z,1.15
2022-12-22T08:14:14.976Z,1.34
2022-12-22T08:16:43.811Z,1.52
2022-12-22T08:19:13.053Z,1.62
2022-12-22T08:21:52.182Z,1.80
2022-12-22T08:24:22.350Z,1.19
2022-12-22T08:26:52.882Z,1.58
2022-12-22T08:29:24.095Z,3.51
2022-12-22T08:31:52.966Z,3.04
2022-12-22T08:34:22.108Z,3.37
2022-12-22T08:36:55.363Z,3.86
2022-12-22T08:39:25.510Z,4.57
2022-12-22T08:41:55.498Z,4.27
2022-12-22T08:44:26.446Z,4.77
2022-12-22T08:46:56.820Z,4.13
2022-12-22T08:49:26.276Z,3.62
2022-12-22T08:51:57.635Z,4.19
2022-12-22T08:54:26.721Z,3.22
2022-12-22T08:56:55.745Z,3.09
2022-12-22T08:59:24.746Z,3.13
2022-12-22T09:01:53.535Z,2.22
2022-12-22T09:04:25.560Z,2.08
2022-12-22T09:06:54.697Z,1.10
2022-12-22T09:09:26.636Z,1.16
2022-12-22T09:11:55.728Z,1.12
2022-12-22T09:14:24.812Z,1.67
2022-12-22T09:16:54.524Z,1.24
2022-12-22T09:19:23.852Z,1.17
2022-12-22T09:21:52.966Z,0.90
2022-12-22T09:24:22.059Z,1.13
2022-12-22T09:26:52.530Z,1.86
2022-12-22T09:29:21.678Z,1.94
2022-12-22T09:31:50.433Z,2.36
2022-12-22T09:34:19.654Z,1.80
2022-12-22T09:36:49.055Z,2.42
2022-12-22T09:39:23.531Z,2.65
2022-12-22T09:41:59.450Z,2.14
2022-12-22T09:44:30.657Z,2.15
2022-12-22T09:47:01.620Z,2.24
2022-12-22T09:49:30.964Z,2.97
2022-12-22T09:52:01.816Z,1.90
2022-12-22T09:54:31.680Z,2.05
2022-12-22T09:57:03.090Z,1.48
2022-12-22T09:59:32.738Z,1.65
2022-12-22T10:02:09.720Z,2.40
2022-12-22T10:04:47.171Z,3.03
2022-12-22T10:07:24.022Z,2.39
2022-12-22T10:09:53.546Z,2.93
2022-12-22T10:12:26.388Z,2.84
2022-12-22T10:14:56.460Z,2.22
2022-12-22T10:17:28.384Z,1.66
2022-12-22T10:20:11.877Z,2.10
2022-12-22T10:22:47.678Z,2.42
2022-12-22T10:25:39.848Z,1.63
2022-12-22T10:28:22.384Z,1.76
2022-12-22T10:30:51.488Z,1.48
2022-12-22T10:33:21.011Z,1.35
2022-12-22T10:35:52.710Z,1.62
2022-12-22T10:38:26.005Z,1.44
2022-12-22T10:41:02.111Z,1.58
2022-12-22T10:43:35.601Z,1.69
2022-12-22T10:46:05.554Z,2.18
2022-12-22T10:48:35.831Z,1.84
2022-12-22T10:51:07.830Z,1.84
2022-12-22T10:53:46.292Z,2.39
2022-12-22T10:56:23.121Z,1.90
2022-12-22T10:58:55.106Z,1.13
2022-12-22T11:01:29.966Z,1.38
2022-12-22T11:04:00.468Z,1.60
2022-12-22T11:06:29.781Z,2.29
2022-12-22T11:09:31.364Z,1.34
2022-12-22T11:11:51.967Z,1.46
2022-12-22T11:14:31.279Z,1.63
2022-12-22T11:17:03.825Z,2.02
2022-12-22T11:19:44.858Z,2.96
2022-12-22T11:22:25.282Z,3.27
2022-12-22T11:25:04.767Z,2.41
2022-12-22T11:27:45.707Z,1.63
2022-12-22T11:30:21.923Z,2.06
2022-12-22T11:33:08.415Z,3.63
2022-12-22T11:35:49.247Z,5.04
2022-12-22T11:38:23.719Z,7.24
2022-12-22T11:40:55.728Z,8.67
2022-12-22T11:43:27.427Z,7.06
2022-12-22T11:46:13.119Z,4.73
2022-12-22T11:48:52.375Z,4.56
2022-12-22T11:51:28.349Z,3.61
2022-12-22T11:54:21.779Z,5.15
2022-12-22T11:56:57.008Z,3.78
2022-12-22T11:59:36.508Z,4.59
2022-12-22T12:02:29.300Z,5.40
2022-12-22T12:05:21.850Z,4.47
2022-12-22T12:07:53.538Z,4.19
2022-12-22T12:10:25.204Z,3.84
2022-12-22T12:12:58.531Z,3.62
2022-12-22T12:15:32.794Z,4.60
2022-12-22T12:18:40.842Z,3.03
2022-12-22T12:21:24.710Z,3.59
2022-12-22T12:24:14.862Z,3.91
2022-12-22T12:26:50.474Z,3.07
2022-12-22T12:29:21.834Z,2.66
2022-12-22T12:31:57.386Z,2.45
2022-12-22T12:34:29.124Z,2.48
2022-12-22T12:37:00.591Z,1.80
2022-12-22T12:39:33.346Z,1.80
2022-12-22T12:42:08.682Z,2.06
2022-12-22T12:44:38.795Z,1.27
2022-12-22T12:47:20.195Z,1.36
2022-12-22T12:50:03.573Z,1.08
2022-12-22T12:53:15.102Z,1.50
2022-12-22T12:56:07.930Z,1.72
2022-12-22T12:58:58.294Z,0.76
2022-12-22T13:01:44.747Z,0.84
2022-12-22T13:04:14.054Z,0.76
2022-12-22T13:06:54.575Z,0.74
2022-12-22T13:09:50.421Z,0.50
2022-12-22T13:12:34.843Z,0.58
2022-12-22T13:15:04.006Z,0.53
2022-12-22T13:17:42.813Z,1.06
2022-12-22T13:20:16.512Z,0.91
2022-12-22T13:22:47.291Z,0.76
2022-12-22T13:25:17.747Z,0.95
2022-12-22T13:27:46.845Z,1.02
2022-12-22T13:30:18.150Z,1.27
2022-12-22T13:32:49.468Z,1.37
2022-12-22T13:35:31.501Z,1.50
2022-12-22T13:38:03.330Z,1.50
2022-12-22T13:40:33.659Z,1.64
2022-12-22T13:43:03.501Z,2.00
2022-12-22T13:45:38.634Z,1.51
2022-12-22T13:48:11.706Z,1.34
2022-12-22T13:50:44.582Z,1.78
2022-12-22T13:53:42.178Z,1.38
2022-12-22T13:56:09.359Z,1.58
2022-12-22T13:58:39.705Z,1.78
2022-12-22T14:01:17.291Z,2.20
2022-12-22T14:04:06.923Z,1.76
2022-12-22T14:06:37.934Z,1.76
2022-12-22T14:09:19.153Z,2.34
2022-12-22T14:11:52.549Z,1.95
2022-12-22T14:14:28.198Z,1.68
2022-12-22T14:16:59.643Z,1.73
2022-12-22T14:19:32.983Z,1.48
2022-12-22T14:22:09.944Z,1.65
2022-12-22T14:24:45.127Z,1.45
2022-12-22T14:27:20.739Z,2.22
2022-12-22T14:29:49.987Z,1.21
2022-12-22T14:32:37.010Z,1.37
2022-12-22T14:35:07.776Z,1.76
2022-12-22T14:37:36.871Z,1.15
2022-12-22T14:40:15.089Z,1.98
2022-12-22T14:42:44.866Z,1.44
2022-12-22T14:45:16.697Z,1.59
2022-12-22T14:47:45.754Z,1.11
2022-12-22T14:50:18.505Z,1.71
2022-12-22T14:52:51.175Z,1.28
2022-12-22T14:55:27.834Z,0.85
2022-12-22T14:58:01.167Z,1.16
2022-12-22T15:00:33.752Z,0.85
2022-12-22T15:03:05.165Z,0.86
2022-12-22T15:05:35.394Z,1.07
2022-12-22T15:08:06.854Z,1.40
2022-12-22T15:10:40.633Z,1.01
2022-12-22T15:13:14.904Z,1.28
2022-12-22T15:15:44.228Z,1.44
2022-12-22T15:18:15.572Z,1.74
2022-12-22T15:20:44.792Z,1.69
2022-12-22T15:23:16.976Z,1.56
2022-12-22T15:25:47.467Z,1.40
2022-12-22T15:28:16.651Z,0.98
2022-12-22T15:30:45.776Z,1.00
2022-12-22T15:33:15.586Z,1.45
2022-12-22T15:35:44.986Z,1.47
2022-12-22T15:38:15.900Z,1.83
2022-12-22T15:40:46.473Z,1.10
2022-12-22T15:43:55.575Z,0.76
2022-12-22T15:46:07.701Z,0.69
2022-12-22T15:48:38.257Z,0.64
2022-12-22T15:51:09.132Z,0.61
2022-12-22T15:53:38.710Z,0.81
2022-12-22T15:56:17.455Z,0.92
2022-12-22T15:58:46.723Z,0.80
2022-12-22T16:01:15.931Z,0.67
2022-12-22T16:03:45.560Z,0.90
2022-12-22T16:06:15.632Z,1.40
2022-12-22T16:08:47.224Z,1.12
2022-12-22T16:11:18.195Z,1.58
2022-12-22T16:13:47.178Z,1.34
2022-12-22T16:16:16.356Z,1.16
2022-12-22T16:18:45.438Z,1.10
2022-12-22T16:21:17.218Z,1.44
2022-12-22T16:23:48.720Z,1.20
2022-12-22T16:26:21.275Z,1.01
2022-12-22T16:28:50.174Z,1.07
2022-12-22T16:31:20.831Z,0.99
2022-12-22T16:33:50.573Z,0.84
2022-12-22T16:36:19.949Z,0.87
2022-12-22T16:38:48.936Z,1.09
2022-12-22T16:41:23.121Z,1.32
2022-12-22T16:43:53.021Z,1.44
2022-12-22T16:46:23.577Z,1.20
2022-12-22T16:48:54.616Z,1.14
2022-12-22T16:51:26.105Z,1.26
2022-12-22T16:53:55.463Z,1.01
2022-12-22T16:56:27.070Z,1.51
2022-12-22T16:58:55.855Z,1.20
2022-12-22T17:01:36.030Z,1.18
2022-12-22T17:04:08.058Z,1.13
2022-12-22T17:06:38.245Z,1.24
2022-12-22T17:09:11.837Z,1.53
2022-12-22T17:11:42.460Z,1.55
2022-12-22T17:14:18.722Z,1.32
2022-12-22T17:16:47.423Z,1.20
2022-12-22T17:19:16.520Z,1.37
2022-12-22T17:21:45.602Z,1.21
2022-12-22T17:24:15.773Z,1.33
2022-12-22T17:26:46.563Z,1.45
2022-12-22T17:29:16.538Z,1.20
2022-12-22T17:31:45.269Z,1.22
2022-12-22T17:34:16.771Z,1.44
2022-12-22T17:36:47.158Z,1.53
2022-12-22T17:39:15.896Z,1.85
2022-12-22T17:41:54.048Z,1.37
2022-12-22T17:44:27.264Z,1.43
2022-12-22T17:46:56.678Z,1.40
2022-12-22T17:49:25.935Z,1.51
2022-12-22T17:51:55.220Z,1.70
2022-12-22T17:54:26.127Z,1.27
2022-12-22T17:57:00.499Z,1.59
2022-12-22T17:59:29.741Z,1.49
2022-12-22T18:01:58.906Z,1.60
2022-12-22T18:04:27.729Z,1.90
2022-12-22T18:06:56.844Z,1.73
2022-12-22T18:09:26.924Z,1.63
2022-12-22T18:11:57.415Z,2.03
2022-12-22T18:14:27.638Z,1.51
2022-12-22T18:16:56.457Z,1.80
2022-12-22T18:19:25.672Z,1.88
2022-12-22T18:21:54.940Z,2.13
2022-12-22T18:24:24.053Z,1.94
2022-12-22T18:26:53.194Z,1.80
2022-12-22T18:29:23.745Z,1.98
2022-12-22T18:31:52.595Z,1.85
2022-12-22T18:34:21.941Z,1.82
2022-12-22T18:36:51.227Z,1.78
2022-12-22T18:39:20.386Z,1.57
2022-12-22T18:41:49.744Z,1.59
2022-12-22T18:44:19.791Z,1.50
2022-12-22T18:46:49.960Z,1.62
2022-12-22T18:49:19.086Z,1.59
2022-12-22T18:51:48.323Z,1.43
2022-12-22T18:54:36.486Z,1.72
2022-12-22T18:57:07.274Z,1.57
2022-12-22T18:59:36.996Z,1.51
2022-12-22T19:02:24.961Z,1.76
2022-12-22T19:04:54.189Z,1.60
2022-12-22T19:07:25.739Z,1.47
2022-12-22T19:09:54.839Z,1.31
2022-12-22T19:12:25.382Z,1.40
2022-12-22T19:14:57.307Z,1.43
2022-12-22T19:17:29.040Z,1.34
2022-12-22T19:19:58.157Z,1.33
2022-12-22T19:22:27.256Z,1.58
2022-12-22T19:24:59.050Z,1.68
2022-12-22T19:27:29.377Z,1.55
2022-12-22T19:30:03.498Z,1.82
2022-12-22T19:32:42.004Z,1.68
2022-12-22T19:35:15.698Z,1.81
2022-12-22T19:37:44.994Z,1.73
2022-12-22T19:40:15.287Z,1.45
2022-12-22T19:42:44.452Z,1.72
2022-12-22T19:45:21.991Z,1.59
2022-12-22T19:47:53.756Z,1.36
2022-12-22T19:50:24.955Z,1.68
2022-12-22T19:52:54.464Z,1.54
2022-12-22T19:55:25.810Z,1.57
2022-12-22T19:57:55.592Z,1.51
2022-12-22T20:00:26.326Z,1.66
2022-12-22T20:02:58.147Z,1.79
2022-12-22T20:05:32.170Z,1.54
2022-12-22T20:08:02.508Z,1.60
2022-12-22T20:10:33.803Z,1.50
2022-12-22T20:13:05.272Z,1.61
2022-12-22T20:15:37.264Z,1.95
2022-12-22T20:18:16.863Z,1.85
2022-12-22T20:20:49.393Z,1.71
2022-12-22T20:23:23.691Z,1.63
2022-12-22T20:25:53.857Z,1.77
2022-12-22T20:28:26.021Z,1.44
2022-12-22T20:30:55.677Z,1.64
2022-12-22T20:33:26.941Z,1.83
2022-12-22T20:35:57.899Z,1.57
2022-12-22T20:38:32.955Z,1.48
2022-12-22T20:41:02.371Z,1.66
2022-12-22T20:43:32.793Z,1.64
2022-12-22T20:46:02.426Z,1.70
2022-12-22T20:48:35.196Z,1.73
2022-12-22T20:51:06.866Z,1.50
2022-12-22T20:53:36.039Z,1.49
2022-12-22T20:56:14.194Z,1.56
2022-12-22T20:58:42.933Z,1.55
2022-12-22T21:01:12.056Z,1.62
2022-12-22T21:03:42.671Z,1.52
2022-12-22T21:06:26.245Z,1.63
2022-12-22T21:08:57.744Z,1.88
2022-12-22T21:11:26.645Z,1.69
2022-12-22T21:13:55.831Z,1.62
2022-12-22T21:16:26.275Z,1.51
2022-12-22T21:18:57.097Z,1.86
2022-12-22T21:21:26.225Z,1.73
2022-12-22T21:23:55.301Z,1.77
2022-12-22T21:26:27.852Z,1.98
2022-12-22T21:28:56.584Z,2.43
2022-12-22T21:31:25.611Z,2.28
2022-12-22T21:33:54.759Z,1.80
2022-12-22T21:36:27.275Z,2.24
2022-12-22T21:38:58.395Z,2.03
2022-12-22T21:41:41.202Z,2.31
2022-12-22T21:44:12.450Z,2.41
2022-12-22T21:46:42.223Z,2.64
2022-12-22T21:49:17.333Z,2.28
2022-12-22T21:51:48.132Z,2.06
2022-12-22T21:54:17.296Z,2.01
2022-12-22T21:56:46.523Z,2.74
2022-12-22T21:59:15.783Z,2.30
2022-12-22T22:01:45.018Z,2.09
2022-12-22T22:04:14.697Z,2.15
2022-12-22T22:06:43.642Z,2.41
2022-12-22T22:09:14.264Z,2.37
2022-12-22T22:11:57.009Z,2.30
2022-12-22T22:14:26.168Z,2.45
2022-12-22T22:16:54.862Z,2.29
2022-12-22T22:19:23.841Z,2.67
2022-12-22T22:21:52.846Z,2.55
2022-12-22T22:24:23.354Z,2.57
2022-12-22T22:26:52.353Z,2.81
2022-12-22T22:29:21.549Z,2.59
2022-12-22T22:31:50.291Z,2.89
2022-12-22T22:34:19.390Z,2.76
2022-12-22T22:36:48.566Z,2.41
2022-12-22T22:39:17.619Z,2.49
2022-12-22T22:41:48.041Z,2.33
2022-12-22T22:44:17.271Z,2.62
2022-12-22T22:46:45.923Z,2.04
2022-12-22T22:49:15.319Z,2.08
2022-12-22T22:51:44.625Z,2.01
2022-12-22T22:54:13.808Z,2.29
2022-12-22T22:56:43.046Z,2.13
2022-12-22T22:59:14.609Z,2.28
2022-12-22T23:01:43.399Z,2.41
2022-12-22T23:04:13.121Z,2.71
2022-12-22T23:06:42.701Z,2.83
2022-12-22T23:09:11.916Z,2.80
2022-12-22T23:11:40.874Z,2.93
2022-12-22T23:14:10.002Z,2.80
2022-12-22T23:16:40.125Z,2.83
2022-12-22T23:19:09.214Z,2.75
2022-12-22T23:21:38.217Z,2.97
2022-12-22T23:24:08.035Z,3.13
2022-12-22T23:26:37.265Z,2.88
2022-12-22T23:29:06.783Z,2.79
2022-12-22T23:31:36.141Z,2.67
2022-12-22T23:34:07.007Z,3.24
2022-12-22T23:36:36.063Z,3.02
2022-12-22T23:39:05.253Z,2.73
2022-12-22T23:41:34.350Z,2.69
2022-12-22T23:44:03.643Z,2.26
2022-12-22T23:46:32.375Z,2.44
2022-12-22T23:49:01.641Z,2.44
2022-12-22T23:51:32.099Z,2.83
2022-12-22T23:54:02.535Z,2.77
2022-12-22T23:56:32.860Z,2.73
2022-12-22T23:59:01.640Z,2.90
